createdAt,value
2018-01-30T00:01:45.151Z,2.50
2018-01-30T00:04:13.476Z,2.90
2018-01-30T00:06:41.709Z,2.83
2018-01-30T00:09:10.023Z,3.50
2018-01-30T00:11:39.082Z,2.90
2018-01-30T00:14:07.390Z,3.23
2018-01-30T00:16:35.679Z,3.60
2018-01-30T00:19:04.709Z,3.23
2018-01-30T00:21:32.992Z,3.17
2018-01-30T00:24:01.301Z,3.37
2018-01-30T00:26:29.545Z,3.03
2018-01-30T00:28:57.816Z,4.77
2018-01-30T00:31:26.884Z,4.53
2018-01-30T00:33:55.908Z,4.50
2018-01-30T00:36:24.210Z,3.60
2018-01-30T00:38:52.454Z,4.37
2018-01-30T00:41:20.695Z,2.80
2018-01-30T00:43:49.747Z,2.30
2018-01-30T00:46:18.019Z,4.80
2018-01-30T00:48:46.279Z,3.97
2018-01-30T00:51:14.574Z,2.40
2018-01-30T00:53:42.821Z,3.27
2018-01-30T00:56:11.055Z,5.33
2018-01-30T00:58:39.354Z,3.20
2018-01-30T01:01:08.354Z,4.20
2018-01-30T01:03:36.601Z,4.40
2018-01-30T01:06:05.021Z,2.63
2018-01-30T01:08:33.290Z,3.80
2018-01-30T01:11:01.524Z,3.07
2018-01-30T01:13:29.788Z,2.77
2018-01-30T01:15:58.077Z,4.13
2018-01-30T01:18:26.360Z,3.63
2018-01-30T01:20:54.636Z,1.60
2018-01-30T01:23:22.958Z,1.60
2018-01-30T01:25:51.777Z,3.00
2018-01-30T01:28:20.086Z,1.17
2018-01-30T01:30:49.152Z,2.43
2018-01-30T01:33:17.476Z,3.27
2018-01-30T01:35:45.759Z,1.30
2018-01-30T01:38:14.011Z,1.90
2018-01-30T01:40:43.062Z,2.00
2018-01-30T01:43:11.335Z,2.53
2018-01-30T01:45:39.640Z,1.70
2018-01-30T01:48:07.919Z,1.60
2018-01-30T01:50:36.145Z,1.70
2018-01-30T01:53:04.469Z,2.40
2018-01-30T01:55:33.561Z,1.10
2018-01-30T01:58:02.589Z,0.97
2018-01-30T02:00:30.941Z,1.90
2018-01-30T02:02:59.952Z,1.40
2018-01-30T02:05:28.998Z,1.73
2018-01-30T02:07:58.116Z,1.50
2018-01-30T02:10:26.442Z,1.30
2018-01-30T02:12:54.695Z,1.67
2018-01-30T02:15:23.752Z,1.83
2018-01-30T02:17:52.022Z,1.20
2018-01-30T02:20:20.374Z,1.20
2018-01-30T02:22:48.704Z,1.33
2018-01-30T02:25:16.975Z,1.50
2018-01-30T02:27:46.075Z,1.80
2018-01-30T02:30:14.395Z,1.50
2018-01-30T02:32:42.688Z,1.60
2018-01-30T02:35:10.953Z,2.40
2018-01-30T02:37:39.264Z,1.73
2018-01-30T02:40:07.547Z,2.40
2018-01-30T02:42:35.886Z,2.40
2018-01-30T02:45:04.180Z,2.20
2018-01-30T02:47:32.458Z,2.20
2018-01-30T02:50:00.822Z,1.50
2018-01-30T02:52:29.106Z,1.10
2018-01-30T02:54:57.384Z,2.17
2018-01-30T02:57:25.669Z,1.40
2018-01-30T02:59:53.976Z,2.40
2018-01-30T03:02:23.000Z,2.03
2018-01-30T03:04:51.317Z,1.20
2018-01-30T03:07:19.564Z,1.93
2018-01-30T03:09:47.824Z,1.40
2018-01-30T03:12:16.181Z,1.77
2018-01-30T03:14:44.422Z,1.93
2018-01-30T03:17:12.763Z,2.33
2018-01-30T03:19:41.023Z,2.00
2018-01-30T03:22:09.404Z,2.00
2018-01-30T03:24:37.810Z,2.20
2018-01-30T03:27:06.841Z,1.50
2018-01-30T03:29:35.154Z,1.47
2018-01-30T03:32:03.456Z,1.80
2018-01-30T03:34:31.732Z,1.00
2018-01-30T03:37:00.072Z,1.77
2018-01-30T03:39:28.313Z,1.63
2018-01-30T03:41:56.578Z,1.50
2018-01-30T03:44:24.843Z,1.53
2018-01-30T03:46:53.094Z,1.70
2018-01-30T03:49:21.401Z,2.60
2018-01-30T03:51:49.677Z,7.80
2018-01-30T03:54:17.924Z,8.23
2018-01-30T03:56:46.230Z,1.87
2018-01-30T03:59:14.525Z,3.30
2018-01-30T04:01:42.843Z,1.57
2018-01-30T04:04:11.133Z,2.03
2018-01-30T04:06:39.430Z,2.10
2018-01-30T04:09:07.726Z,2.03
2018-01-30T04:11:36.093Z,1.97
2018-01-30T04:14:04.352Z,1.53
2018-01-30T04:16:32.626Z,2.10
2018-01-30T04:19:00.958Z,1.60
2018-01-30T04:21:29.269Z,1.90
2018-01-30T04:23:57.546Z,1.70
2018-01-30T04:26:25.793Z,2.13
2018-01-30T04:28:54.166Z,1.90
2018-01-30T04:31:22.462Z,1.83
2018-01-30T04:33:51.008Z,2.40
2018-01-30T04:36:20.947Z,2.20
2018-01-30T04:38:49.235Z,2.27
2018-01-30T04:41:17.523Z,2.40
2018-01-30T04:43:45.809Z,1.73
2018-01-30T04:46:14.125Z,1.73
2018-01-30T04:48:42.430Z,2.00
2018-01-30T04:51:10.724Z,2.10
2018-01-30T04:53:39.083Z,2.50
2018-01-30T04:56:07.338Z,2.00
2018-01-30T04:58:36.350Z,2.90
2018-01-30T05:01:04.694Z,2.30
2018-01-30T05:03:32.937Z,1.90
2018-01-30T05:06:01.179Z,2.30
2018-01-30T05:08:29.478Z,2.33
2018-01-30T05:10:57.750Z,3.67
2018-01-30T05:13:26.017Z,2.13
2018-01-30T05:15:54.296Z,2.53
2018-01-30T05:18:22.769Z,1.70
2018-01-30T05:20:51.073Z,1.80
2018-01-30T05:23:19.338Z,2.10
2018-01-30T05:25:47.705Z,2.10
2018-01-30T05:28:15.969Z,3.30
2018-01-30T05:30:44.220Z,1.97
2018-01-30T05:33:13.307Z,2.40
2018-01-30T05:35:41.550Z,2.50
2018-01-30T05:38:09.776Z,2.10
2018-01-30T05:40:38.078Z,2.43
2018-01-30T05:43:06.359Z,1.87
2018-01-30T05:45:35.424Z,1.90
2018-01-30T05:48:04.550Z,1.80
2018-01-30T05:50:33.648Z,2.30
2018-01-30T05:53:01.984Z,2.60
2018-01-30T05:55:30.293Z,3.10
2018-01-30T05:57:58.627Z,2.23
2018-01-30T06:00:27.823Z,2.40
2018-01-30T06:02:56.124Z,2.17
2018-01-30T06:05:24.413Z,2.80
2018-01-30T06:07:52.764Z,2.93
2018-01-30T06:10:21.926Z,1.90
2018-01-30T06:12:50.222Z,3.40
2018-01-30T06:15:18.469Z,2.10
2018-01-30T06:17:46.765Z,2.40
2018-01-30T06:20:15.109Z,2.97
2018-01-30T06:22:43.370Z,4.10
2018-01-30T06:25:11.647Z,3.30
2018-01-30T06:27:39.979Z,5.30
2018-01-30T06:30:08.294Z,3.23
2018-01-30T06:32:36.721Z,4.80
2018-01-30T06:35:04.999Z,5.70
2018-01-30T06:37:33.336Z,4.70
2018-01-30T06:40:01.632Z,7.37
2018-01-30T06:42:29.908Z,3.70
2018-01-30T06:44:58.629Z,5.20
2018-01-30T06:47:27.664Z,4.80
2018-01-30T06:49:55.923Z,2.97
2018-01-30T06:52:24.202Z,4.73
2018-01-30T06:54:52.482Z,8.20
2018-01-30T06:57:20.782Z,5.53
2018-01-30T06:59:49.034Z,5.30
2018-01-30T07:02:17.303Z,6.90
2018-01-30T07:04:45.605Z,5.30
2018-01-30T07:07:13.974Z,3.07
2018-01-30T07:09:42.299Z,2.90
2018-01-30T07:12:10.627Z,2.93
2018-01-30T07:14:38.944Z,2.57
2018-01-30T07:17:07.198Z,2.57
2018-01-30T07:19:35.541Z,2.83
2018-01-30T07:22:03.813Z,2.43
2018-01-30T07:24:32.093Z,2.90
2018-01-30T07:27:00.389Z,2.67
2018-01-30T07:29:28.666Z,2.67
2018-01-30T07:31:56.908Z,2.60
2018-01-30T07:34:25.907Z,2.00
2018-01-30T07:36:56.717Z,4.30
2018-01-30T07:39:25.044Z,3.27
2018-01-30T07:41:54.062Z,2.50
2018-01-30T07:44:22.384Z,2.70
2018-01-30T07:46:51.418Z,2.93
2018-01-30T07:49:19.750Z,2.77
2018-01-30T07:51:48.769Z,2.77
2018-01-30T07:54:17.045Z,2.57
2018-01-30T07:56:45.317Z,2.80
2018-01-30T07:59:13.552Z,2.07
2018-01-30T08:01:41.834Z,2.47
2018-01-30T08:04:10.123Z,2.10
2018-01-30T08:06:38.425Z,2.27
2018-01-30T08:09:06.682Z,2.03
2018-01-30T08:11:35.718Z,1.87
2018-01-30T08:14:03.976Z,2.17
2018-01-30T08:16:32.247Z,3.00
2018-01-30T08:19:00.510Z,4.20
2018-01-30T08:21:28.782Z,2.20
2018-01-30T08:23:57.062Z,2.43
2018-01-30T08:26:25.307Z,4.50
2018-01-30T08:28:53.552Z,2.90
2018-01-30T08:31:21.881Z,3.10
2018-01-30T08:33:50.179Z,2.70
2018-01-30T08:36:18.406Z,3.30
2018-01-30T08:38:46.699Z,2.50
2018-01-30T08:41:15.004Z,2.40
2018-01-30T08:43:43.281Z,2.70
2018-01-30T08:46:11.509Z,2.63
2018-01-30T08:48:39.834Z,3.20
2018-01-30T08:51:08.158Z,3.77
2018-01-30T08:53:36.409Z,3.50
2018-01-30T08:56:04.654Z,2.80
2018-01-30T08:58:32.965Z,3.67
2018-01-30T09:01:01.194Z,3.27
2018-01-30T09:03:30.285Z,3.50
2018-01-30T09:05:59.388Z,2.23
2018-01-30T09:08:27.707Z,3.00
2018-01-30T09:10:55.973Z,2.77
2018-01-30T09:13:24.319Z,3.63
2018-01-30T09:15:52.563Z,2.77
2018-01-30T09:18:20.844Z,4.13
2018-01-30T09:20:49.137Z,6.67
2018-01-30T09:23:18.172Z,13.63
2018-01-30T09:25:46.429Z,3.80
2018-01-30T09:28:14.679Z,4.90
2018-01-30T09:30:43.709Z,4.47
2018-01-30T09:33:11.974Z,10.07
2018-01-30T09:35:40.204Z,15.63
2018-01-30T09:38:08.471Z,4.50
2018-01-30T09:40:37.503Z,14.03
2018-01-30T09:43:06.513Z,10.83
2018-01-30T09:45:34.790Z,7.90
2018-01-30T09:48:03.011Z,3.23
2018-01-30T09:50:31.269Z,2.60
2018-01-30T09:52:59.530Z,4.27
2018-01-30T09:55:27.802Z,2.77
2018-01-30T09:57:56.085Z,2.90
2018-01-30T10:00:24.326Z,3.67
2018-01-30T10:02:52.614Z,2.83
2018-01-30T10:05:20.920Z,3.53
2018-01-30T10:07:49.170Z,3.27
2018-01-30T10:10:17.596Z,3.27
2018-01-30T10:12:45.841Z,2.30
2018-01-30T10:15:14.086Z,2.70
2018-01-30T10:17:42.471Z,2.80
2018-01-30T10:20:10.757Z,2.60
2018-01-30T10:22:38.973Z,2.73
2018-01-30T10:25:07.419Z,2.60
2018-01-30T10:27:35.632Z,3.70
2018-01-30T10:30:03.865Z,2.23
2018-01-30T10:32:32.163Z,3.30
2018-01-30T10:35:00.390Z,4.10
2018-01-30T10:37:28.606Z,3.93
2018-01-30T10:39:56.877Z,3.33
2018-01-30T10:42:25.136Z,4.90
2018-01-30T10:44:53.440Z,3.33
2018-01-30T10:47:21.665Z,3.77
2018-01-30T10:49:49.908Z,3.20
2018-01-30T10:52:18.178Z,3.13
2018-01-30T10:54:46.429Z,2.70
2018-01-30T10:57:14.673Z,2.23
2018-01-30T10:59:42.902Z,3.70
2018-01-30T11:02:11.202Z,3.80
2018-01-30T11:04:40.217Z,2.70
2018-01-30T11:07:08.450Z,3.20
2018-01-30T11:09:36.739Z,2.87
2018-01-30T11:12:05.742Z,5.13
2018-01-30T11:14:34.791Z,2.60
2018-01-30T11:17:03.103Z,3.43
2018-01-30T11:19:32.119Z,2.67
2018-01-30T11:22:00.364Z,3.60
2018-01-30T11:24:28.679Z,5.03
2018-01-30T11:26:56.888Z,3.60
2018-01-30T11:29:25.137Z,2.67
2018-01-30T11:31:53.451Z,3.57
2018-01-30T11:34:21.681Z,4.10
2018-01-30T11:36:49.908Z,3.40
2018-01-30T11:39:18.220Z,3.43
2018-01-30T11:41:46.481Z,3.03
2018-01-30T11:44:16.065Z,3.20
2018-01-30T11:46:44.312Z,3.37
2018-01-30T11:49:12.554Z,2.80
2018-01-30T11:51:40.851Z,2.77
2018-01-30T11:54:09.072Z,2.53
2018-01-30T11:56:37.314Z,3.20
2018-01-30T11:59:05.584Z,3.73
2018-01-30T12:01:33.837Z,3.50
2018-01-30T12:04:02.099Z,2.80
2018-01-30T12:06:30.356Z,3.20
2018-01-30T12:08:58.567Z,3.33
2018-01-30T12:11:26.813Z,3.60
2018-01-30T12:13:55.029Z,3.27
2018-01-30T12:16:23.290Z,2.73
2018-01-30T12:18:51.548Z,4.00
2018-01-30T12:21:20.597Z,3.97
2018-01-30T12:23:48.829Z,3.10
2018-01-30T12:26:17.054Z,3.50
2018-01-30T12:28:45.326Z,2.97
2018-01-30T12:31:13.566Z,3.00
2018-01-30T12:33:41.869Z,3.00
2018-01-30T12:36:10.118Z,4.40
2018-01-30T12:38:38.361Z,2.50
2018-01-30T12:41:07.706Z,2.70
2018-01-30T12:43:36.017Z,3.50
2018-01-30T12:46:04.276Z,3.77
2018-01-30T12:48:32.535Z,3.37
2018-01-30T12:51:01.551Z,3.30
2018-01-30T12:53:29.819Z,2.87
2018-01-30T12:55:58.066Z,2.77
2018-01-30T12:58:26.366Z,3.30
2018-01-30T13:00:54.647Z,2.77
2018-01-30T13:03:22.945Z,2.67
2018-01-30T13:05:51.188Z,3.07
2018-01-30T13:08:19.436Z,2.80
2018-01-30T13:10:47.721Z,3.33
2018-01-30T13:13:16.021Z,3.17
2018-01-30T13:15:44.304Z,3.10
2018-01-30T13:18:12.719Z,3.20
2018-01-30T13:20:41.736Z,3.50
2018-01-30T13:23:09.953Z,3.60
2018-01-30T13:25:38.226Z,3.50
2018-01-30T13:28:06.480Z,3.80
2018-01-30T13:30:34.713Z,3.40
2018-01-30T13:33:03.808Z,2.77
2018-01-30T13:35:32.154Z,3.10
2018-01-30T13:38:00.464Z,3.60
2018-01-30T13:40:29.460Z,3.70
2018-01-30T13:42:58.519Z,4.10
2018-01-30T13:45:26.881Z,5.63
2018-01-30T13:47:55.089Z,4.50
2018-01-30T13:50:23.361Z,4.00
2018-01-30T13:52:51.663Z,4.73
2018-01-30T13:55:20.653Z,3.93
2018-01-30T13:57:49.682Z,5.13
2018-01-30T14:00:17.929Z,5.00
2018-01-30T14:02:46.250Z,4.90
2018-01-30T14:05:14.506Z,4.03
2018-01-30T14:07:42.756Z,4.27
2018-01-30T14:10:11.077Z,3.10
2018-01-30T14:12:39.316Z,3.50
2018-01-30T14:15:07.633Z,2.97
2018-01-30T14:17:35.937Z,5.60
2018-01-30T14:20:04.207Z,4.47
2018-01-30T14:22:32.489Z,3.50
2018-01-30T14:25:00.763Z,5.00
2018-01-30T14:27:29.103Z,5.53
2018-01-30T14:29:57.353Z,4.43
2018-01-30T14:32:25.602Z,5.30
2018-01-30T14:34:53.900Z,5.60
2018-01-30T14:37:22.143Z,3.90
2018-01-30T14:39:50.410Z,4.90
2018-01-30T14:42:18.639Z,3.00
2018-01-30T14:44:46.889Z,3.40
2018-01-30T14:47:15.233Z,4.73
2018-01-30T14:49:43.491Z,4.33
2018-01-30T14:52:11.765Z,5.97
2018-01-30T14:54:40.140Z,5.80
2018-01-30T14:57:08.415Z,6.20
2018-01-30T14:59:36.646Z,6.47
2018-01-30T15:02:05.001Z,5.50
2018-01-30T15:04:33.250Z,4.60
2018-01-30T15:07:01.496Z,5.60
2018-01-30T15:09:29.795Z,4.20
2018-01-30T15:11:58.057Z,5.07
2018-01-30T15:14:26.716Z,5.00
2018-01-30T15:16:55.062Z,5.33
2018-01-30T15:19:24.125Z,4.10
2018-01-30T15:21:52.454Z,5.50
2018-01-30T15:24:21.491Z,7.10
2018-01-30T15:26:49.807Z,5.20
2018-01-30T15:29:18.875Z,5.77
2018-01-30T15:31:47.108Z,5.30
2018-01-30T15:34:15.698Z,6.67
2018-01-30T15:36:44.065Z,6.20
2018-01-30T15:39:12.348Z,5.53
2018-01-30T15:41:40.647Z,6.50
2018-01-30T15:44:08.950Z,6.97
2018-01-30T15:46:37.272Z,5.83
2018-01-30T15:49:05.541Z,6.30
2018-01-30T15:51:34.649Z,5.80
2018-01-30T15:54:02.898Z,4.33
2018-01-30T15:56:31.996Z,6.33
2018-01-30T15:59:01.086Z,5.80
2018-01-30T16:01:29.372Z,7.40
2018-01-30T16:03:57.623Z,5.63
2018-01-30T16:06:25.974Z,5.77
2018-01-30T16:08:54.303Z,6.70
2018-01-30T16:11:23.293Z,8.00
2018-01-30T16:13:52.365Z,7.03
2018-01-30T16:16:21.439Z,7.20
2018-01-30T16:18:49.765Z,7.20
2018-01-30T16:21:18.805Z,6.67
2018-01-30T16:23:47.112Z,6.63
2018-01-30T16:26:16.150Z,7.50
2018-01-30T16:28:44.466Z,7.33
2018-01-30T16:31:12.733Z,5.87
2018-01-30T16:33:40.979Z,6.63
2018-01-30T16:36:09.309Z,6.20
2018-01-30T16:38:37.584Z,8.50
2018-01-30T16:41:05.836Z,6.60
2018-01-30T16:43:34.161Z,7.37
2018-01-30T16:46:03.300Z,7.80
2018-01-30T16:48:31.561Z,8.50
2018-01-30T16:50:59.848Z,7.70
2018-01-30T16:53:28.263Z,6.27
2018-01-30T16:55:57.345Z,6.63
2018-01-30T16:58:25.608Z,7.33
2018-01-30T17:00:53.883Z,9.23
2018-01-30T17:03:22.285Z,8.37
2018-01-30T17:05:50.660Z,8.70
2018-01-30T17:08:18.908Z,9.93
2018-01-30T17:10:47.159Z,10.70
2018-01-30T17:13:15.482Z,7.93
2018-01-30T17:15:43.729Z,7.90
2018-01-30T17:18:12.046Z,6.00
2018-01-30T17:20:40.344Z,8.10
2018-01-30T17:23:09.380Z,7.33
2018-01-30T17:25:37.671Z,7.03
2018-01-30T17:28:06.015Z,8.57
2018-01-30T17:30:34.259Z,9.70
2018-01-30T17:33:03.275Z,8.60
2018-01-30T17:35:31.589Z,9.40
2018-01-30T17:37:59.838Z,8.20
2018-01-30T17:40:28.249Z,9.70
2018-01-30T17:42:56.622Z,11.67
2018-01-30T17:45:25.006Z,11.10
2018-01-30T17:47:53.372Z,12.13
2018-01-30T17:50:21.731Z,9.50
2018-01-30T17:52:50.099Z,9.20
2018-01-30T17:55:18.472Z,10.97
2018-01-30T17:57:46.784Z,10.50
2018-01-30T18:00:15.035Z,8.07
2018-01-30T18:02:43.445Z,7.13
2018-01-30T18:05:11.777Z,8.20
2018-01-30T18:07:40.016Z,8.10
2018-01-30T18:10:08.349Z,5.97
2018-01-30T18:12:36.604Z,7.17
2018-01-30T18:15:04.896Z,8.07
2018-01-30T18:17:33.202Z,8.40
2018-01-30T18:20:01.458Z,7.00
2018-01-30T18:22:29.780Z,6.00
2018-01-30T18:24:58.058Z,7.30
2018-01-30T18:27:26.366Z,10.93
2018-01-30T18:29:54.598Z,8.83
2018-01-30T18:32:22.854Z,7.07
2018-01-30T18:34:51.185Z,9.00
2018-01-30T18:37:19.425Z,8.67
2018-01-30T18:39:47.666Z,8.30
2018-01-30T18:42:16.003Z,9.43
2018-01-30T18:44:45.015Z,9.23
2018-01-30T18:47:13.285Z,13.07
2018-01-30T18:49:41.563Z,8.03
2018-01-30T18:52:09.804Z,15.40
2018-01-30T18:54:38.058Z,12.33
2018-01-30T18:57:06.359Z,11.57
2018-01-30T18:59:34.800Z,9.53
2018-01-30T19:02:03.102Z,10.47
2018-01-30T19:04:31.467Z,9.70
2018-01-30T19:06:59.848Z,9.87
2018-01-30T19:09:28.143Z,9.80
2018-01-30T19:11:56.492Z,14.73
2018-01-30T19:14:24.755Z,10.23
2018-01-30T19:16:52.985Z,9.70
2018-01-30T19:19:22.063Z,11.83
2018-01-30T19:21:50.593Z,9.00
2018-01-30T19:24:19.148Z,17.83
2018-01-30T19:26:47.591Z,11.03
2018-01-30T19:29:15.824Z,26.57
2018-01-30T19:31:44.142Z,11.23
2018-01-30T19:34:12.447Z,12.13
2018-01-30T19:36:41.458Z,11.30
2018-01-30T19:39:09.733Z,10.20
2018-01-30T19:41:38.008Z,8.37
2018-01-30T19:44:06.298Z,15.20
2018-01-30T19:46:34.549Z,9.97
2018-01-30T19:49:03.614Z,53.00
2018-01-30T19:51:31.866Z,7.70
2018-01-30T19:54:00.206Z,13.00
2018-01-30T19:56:28.488Z,9.93
2018-01-30T19:58:57.479Z,7.57
2018-01-30T20:01:25.730Z,8.40
2018-01-30T20:03:54.910Z,26.43
2018-01-30T20:06:23.183Z,16.83
2018-01-30T20:08:51.508Z,8.33
2018-01-30T20:11:19.882Z,8.77
2018-01-30T20:13:48.201Z,8.60
2018-01-30T20:16:16.458Z,7.93
2018-01-30T20:18:45.538Z,8.27
2018-01-30T20:21:13.885Z,8.20
2018-01-30T20:23:42.203Z,12.43
2018-01-30T20:26:10.541Z,10.67
2018-01-30T20:28:39.608Z,10.13
2018-01-30T20:31:07.880Z,12.30
2018-01-30T20:33:36.217Z,11.27
2018-01-30T20:36:04.506Z,28.77
2018-01-30T20:38:32.773Z,10.10
2018-01-30T20:41:01.075Z,9.47
2018-01-30T20:43:29.465Z,9.80
2018-01-30T20:45:57.712Z,7.93
2018-01-30T20:48:26.068Z,10.67
2018-01-30T20:50:54.355Z,10.53
2018-01-30T20:53:22.646Z,15.60
2018-01-30T20:55:50.882Z,10.17
2018-01-30T20:58:19.967Z,10.60
2018-01-30T21:00:49.036Z,9.07
2018-01-30T21:03:17.322Z,11.10
2018-01-30T21:05:45.665Z,10.43
2018-01-30T21:08:13.914Z,12.27
2018-01-30T21:10:42.229Z,12.40
2018-01-30T21:13:10.941Z,12.30
2018-01-30T21:15:40.311Z,9.43
2018-01-30T21:18:08.684Z,11.33
2018-01-30T21:20:37.100Z,10.60
2018-01-30T21:23:05.380Z,10.97
2018-01-30T21:25:34.431Z,10.50
2018-01-30T21:28:02.721Z,10.50
2018-01-30T21:30:30.961Z,10.83
2018-01-30T21:32:59.223Z,18.57
2018-01-30T21:35:28.344Z,10.00
2018-01-30T21:37:56.631Z,24.40
2018-01-30T21:40:24.939Z,18.53
2018-01-30T21:42:55.022Z,18.60
2018-01-30T21:45:23.396Z,19.27
2018-01-30T21:47:51.678Z,18.77
2018-01-30T21:50:19.989Z,21.63
2018-01-30T21:52:48.266Z,9.60
2018-01-30T21:55:16.624Z,14.40
2018-01-30T21:57:44.940Z,10.50
2018-01-30T22:00:13.995Z,27.77
2018-01-30T22:02:42.266Z,12.17
2018-01-30T22:05:10.554Z,15.13
2018-01-30T22:07:38.818Z,14.83
2018-01-30T22:10:07.071Z,15.93
2018-01-30T22:12:35.713Z,12.07
2018-01-30T22:15:03.983Z,17.70
2018-01-30T22:17:32.713Z,18.03
2018-01-30T22:20:01.024Z,23.37
2018-01-30T22:22:29.294Z,21.10
2018-01-30T22:24:57.553Z,26.90
2018-01-30T22:27:26.057Z,11.87
2018-01-30T22:29:54.342Z,11.40
2018-01-30T22:32:22.596Z,9.37
2018-01-30T22:34:50.995Z,12.83
2018-01-30T22:37:19.245Z,14.60
2018-01-30T22:39:47.530Z,16.90
2018-01-30T22:42:15.931Z,11.80
2018-01-30T22:44:45.070Z,27.60
